KGRB/GRB METAR and TAF weather

Enter ICAO airport designator
Station Type Date Time Source
KGRB METAR 2021/02/25 15:53 UTC NOAA

KGRB 251553Z 27011KT 10SM CLR 00/M06 A3026 RMK AO2 SLP258 T00001056


Station Type Date Time Source
KGRB Decoded METAR 2021/02/25 15:53 UTC NOAA

AUSTIN STRAUBEL INTERNATIONAL AIRPORT , WI, United States (KGRB) 44-29N 088-08W 205M
Feb 25, 2021 - 10:53 AM EST / 2021.02.25 1553 UTC
Wind: from the W (270 degrees) at 13 MPH (11 KT):0
Visibility: 10 mile(s):0
Sky conditions: clear
Temperature: 32.0 F (0.0 C)
Windchill: 23 F (-5 C):1
Dew Point: 21.9 F (-5.6 C)
Relative Humidity: 65%
Pressure (altimeter): 30.26 in. Hg (1024 hPa)
ob: KGRB 251553Z 27011KT 10SM CLR 00/M06 A3026 RMK AO2 SLP258 T00001056
cycle: 16

Station Type Date Time Source
KGRB TAF 2021/02/25 12:28 UTC NOAA

TAF KGRB 251126Z 2512/2612 26007KT P6SM SCT050
FM251700 27010G16KT P6SM SCT150
FM252200 24006KT P6SM SKC
FM261000 21006KT P6SM SCT008

Example: see airport list